createdAt,value
2023-05-25T00:02:07.483Z,14.34
2023-05-25T00:04:37.138Z,14.83
2023-05-25T00:07:05.985Z,14.90
2023-05-25T00:09:36.687Z,14.94
2023-05-25T00:12:06.223Z,14.88
2023-05-25T00:14:34.749Z,14.86
2023-05-25T00:17:04.428Z,14.84
2023-05-25T00:19:34.297Z,14.83
2023-05-25T00:22:03.530Z,14.52
2023-05-25T00:24:32.660Z,14.82
2023-05-25T00:27:02.668Z,14.82
2023-05-25T00:29:31.137Z,14.87
2023-05-25T00:31:59.489Z,14.77
2023-05-25T00:34:27.884Z,14.91
2023-05-25T00:36:56.473Z,14.93
2023-05-25T00:39:24.760Z,14.94
2023-05-25T00:41:53.132Z,15.01
2023-05-25T00:44:22.911Z,14.91
2023-05-25T00:46:53.050Z,14.52
2023-05-25T00:49:23.941Z,14.81
2023-05-25T00:51:54.102Z,14.83
2023-05-25T00:54:22.828Z,14.84
2023-05-25T00:56:54.386Z,14.81
2023-05-25T00:59:31.113Z,14.65
2023-05-25T01:02:04.960Z,14.85
2023-05-25T01:04:36.156Z,14.84
2023-05-25T01:07:06.500Z,14.87
2023-05-25T01:09:36.404Z,14.56
2023-05-25T01:12:05.220Z,14.85
2023-05-25T01:14:36.485Z,14.86
2023-05-25T01:17:05.040Z,14.85
2023-05-25T01:19:37.538Z,14.86
2023-05-25T01:22:13.612Z,14.83
2023-05-25T01:24:46.133Z,14.89
2023-05-25T01:27:18.476Z,14.90
2023-05-25T01:29:48.334Z,14.90
2023-05-25T01:32:19.458Z,13.87
2023-05-25T01:34:49.956Z,14.83
2023-05-25T01:37:23.570Z,14.38
2023-05-25T01:39:51.967Z,14.72
2023-05-25T01:42:20.498Z,14.81
2023-05-25T01:44:49.242Z,14.76
2023-05-25T01:47:23.456Z,14.72
2023-05-25T01:49:59.592Z,14.61
2023-05-25T01:52:33.874Z,14.69
2023-05-25T01:55:06.923Z,14.69
2023-05-25T01:57:39.055Z,14.64
2023-05-25T02:00:11.055Z,14.61
2023-05-25T02:02:42.486Z,14.57
2023-05-25T02:05:11.611Z,14.52
2023-05-25T02:07:41.752Z,14.49
2023-05-25T02:10:10.981Z,14.46
2023-05-25T02:12:39.450Z,14.41
2023-05-25T02:15:08.877Z,14.40
2023-05-25T02:17:37.475Z,14.36
2023-05-25T02:20:07.048Z,14.31
2023-05-25T02:22:37.625Z,14.23
2023-05-25T02:25:09.327Z,14.10
2023-05-25T02:27:37.762Z,14.16
2023-05-25T02:30:07.352Z,14.06
2023-05-25T02:32:36.151Z,14.10
2023-05-25T02:35:04.601Z,14.08
2023-05-25T02:37:32.918Z,14.04
2023-05-25T02:40:01.365Z,13.96
2023-05-25T02:42:31.023Z,13.98
2023-05-25T02:44:59.483Z,13.98
2023-05-25T02:47:27.901Z,13.90
2023-05-25T02:49:56.376Z,13.90
2023-05-25T02:52:25.872Z,13.83
2023-05-25T02:54:54.232Z,13.84
2023-05-25T02:57:23.270Z,13.83
2023-05-25T02:59:53.006Z,13.59
2023-05-25T03:02:25.686Z,13.65
2023-05-25T03:04:55.014Z,13.72
2023-05-25T03:07:25.650Z,13.65
2023-05-25T03:09:54.296Z,13.67
2023-05-25T03:12:22.676Z,13.59
2023-05-25T03:14:52.496Z,13.52
2023-05-25T03:17:20.851Z,13.45
2023-05-25T03:19:49.369Z,13.44
2023-05-25T03:22:17.690Z,13.37
2023-05-25T03:24:46.829Z,13.39
2023-05-25T03:27:15.142Z,13.44
2023-05-25T03:29:43.509Z,13.43
2023-05-25T03:32:13.494Z,13.43
2023-05-25T03:34:42.890Z,13.41
2023-05-25T03:37:11.252Z,13.48
2023-05-25T03:39:39.580Z,13.41
2023-05-25T03:42:08.542Z,13.48
2023-05-25T03:44:37.534Z,13.57
2023-05-25T03:47:07.389Z,13.70
2023-05-25T03:49:37.141Z,13.80
2023-05-25T03:52:06.412Z,13.83
2023-05-25T03:54:34.925Z,13.72
2023-05-25T03:57:03.952Z,13.67
2023-05-25T03:59:32.710Z,13.64
2023-05-25T04:02:00.931Z,13.60
2023-05-25T04:04:30.140Z,13.45
2023-05-25T04:06:59.916Z,13.44
2023-05-25T04:09:28.286Z,13.28
2023-05-25T04:11:56.572Z,13.31
2023-05-25T04:14:24.835Z,13.24
2023-05-25T04:16:53.660Z,13.21
2023-05-25T04:19:21.960Z,13.11
2023-05-25T04:21:50.231Z,13.26
2023-05-25T04:24:19.976Z,13.36
2023-05-25T04:26:48.460Z,13.40
2023-05-25T04:29:16.783Z,13.38
2023-05-25T04:31:46.023Z,13.39
2023-05-25T04:34:15.412Z,13.50
2023-05-25T04:36:45.013Z,13.60
2023-05-25T04:39:13.395Z,13.68
2023-05-25T04:41:43.291Z,13.79
2023-05-25T04:44:11.676Z,13.89
2023-05-25T04:46:40.877Z,13.93
2023-05-25T04:49:10.163Z,13.85
2023-05-25T04:51:38.673Z,13.90
2023-05-25T04:54:07.506Z,13.96
2023-05-25T04:56:35.841Z,14.13
2023-05-25T04:59:06.535Z,14.23
2023-05-25T05:01:40.965Z,14.30
2023-05-25T05:04:09.863Z,14.36
2023-05-25T05:06:38.269Z,14.41
2023-05-25T05:09:06.705Z,14.52
2023-05-25T05:11:35.119Z,14.64
2023-05-25T05:14:03.477Z,14.61
2023-05-25T05:16:35.333Z,14.57
2023-05-25T05:19:04.190Z,14.75
2023-05-25T05:21:32.709Z,14.79
2023-05-25T05:24:01.231Z,14.91
2023-05-25T05:26:30.622Z,15.04
2023-05-25T05:28:59.974Z,15.05
2023-05-25T05:31:29.597Z,15.19
2023-05-25T05:33:59.649Z,15.26
2023-05-25T05:36:29.968Z,15.34
2023-05-25T05:38:58.260Z,15.45
2023-05-25T05:41:27.631Z,15.50
2023-05-25T05:43:56.757Z,15.60
2023-05-25T05:46:25.094Z,15.64
2023-05-25T05:48:53.516Z,15.72
2023-05-25T05:51:23.277Z,15.70
2023-05-25T05:53:51.810Z,15.77
2023-05-25T05:56:20.758Z,15.68
2023-05-25T05:58:50.081Z,16.26
2023-05-25T06:01:18.512Z,16.65
2023-05-25T06:03:47.706Z,16.83
2023-05-25T06:06:16.672Z,16.89
2023-05-25T06:08:47.507Z,16.89
2023-05-25T06:11:15.989Z,17.17
2023-05-25T06:13:45.488Z,17.34
2023-05-25T06:16:15.051Z,17.51
2023-05-25T06:18:43.448Z,17.54
2023-05-25T06:21:12.869Z,17.53
2023-05-25T06:23:41.500Z,17.49
2023-05-25T06:26:11.284Z,17.53
2023-05-25T06:28:39.592Z,17.66
2023-05-25T06:31:07.968Z,17.78
2023-05-25T06:33:36.369Z,18.03
2023-05-25T06:36:05.054Z,18.12
2023-05-25T06:38:33.456Z,17.99
2023-05-25T06:41:03.744Z,18.00
2023-05-25T06:43:33.638Z,17.91
2023-05-25T06:46:02.316Z,17.84
2023-05-25T06:48:30.866Z,17.66
2023-05-25T06:50:59.295Z,17.77
2023-05-25T06:53:27.716Z,17.95
2023-05-25T06:55:56.147Z,18.25
2023-05-25T06:58:24.641Z,18.44
2023-05-25T07:00:54.546Z,18.67
2023-05-25T07:03:22.992Z,18.93
2023-05-25T07:05:51.446Z,19.14
2023-05-25T07:08:19.785Z,19.30
2023-05-25T07:10:50.186Z,19.38
2023-05-25T07:13:18.893Z,19.41
2023-05-25T07:15:47.580Z,19.27
2023-05-25T07:18:17.744Z,19.16
2023-05-25T07:20:46.722Z,19.72
2023-05-25T07:23:15.102Z,19.90
2023-05-25T07:25:43.667Z,19.72
2023-05-25T07:28:12.330Z,20.13
2023-05-25T07:30:42.034Z,20.23
2023-05-25T07:33:10.520Z,20.16
2023-05-25T07:35:40.531Z,19.73
2023-05-25T07:38:08.906Z,19.93
2023-05-25T07:40:37.250Z,19.85
2023-05-25T07:43:08.098Z,19.95
2023-05-25T07:45:36.864Z,19.63
2023-05-25T07:48:07.288Z,19.73
2023-05-25T07:50:35.708Z,19.80
2023-05-25T07:53:05.427Z,19.65
2023-05-25T07:55:33.891Z,19.72
2023-05-25T07:58:02.245Z,19.82
2023-05-25T08:00:31.051Z,20.00
2023-05-25T08:02:59.578Z,20.23
2023-05-25T08:05:28.357Z,20.41
2023-05-25T08:07:56.789Z,20.47
2023-05-25T08:10:31.568Z,20.52
2023-05-25T08:13:00.135Z,20.62
2023-05-25T08:15:28.651Z,20.74
2023-05-25T08:17:57.334Z,20.68
2023-05-25T08:20:26.319Z,20.23
2023-05-25T08:22:54.888Z,20.65
2023-05-25T08:25:23.470Z,20.07
2023-05-25T08:27:53.635Z,20.44
2023-05-25T08:30:22.529Z,20.46
2023-05-25T08:32:51.575Z,20.21
2023-05-25T08:35:20.200Z,19.84
2023-05-25T08:37:48.644Z,20.00
2023-05-25T08:40:18.060Z,20.14
2023-05-25T08:42:47.494Z,20.26
2023-05-25T08:45:33.465Z,20.45
2023-05-25T08:48:05.771Z,20.50
2023-05-25T08:50:35.643Z,20.58
2023-05-25T08:53:06.538Z,20.67
2023-05-25T08:55:39.154Z,20.74
2023-05-25T08:58:13.374Z,20.58
2023-05-25T09:00:50.178Z,20.40
2023-05-25T09:03:19.094Z,20.32
2023-05-25T09:05:47.795Z,20.45
2023-05-25T09:08:17.043Z,20.45
2023-05-25T09:10:45.818Z,20.28
2023-05-25T09:13:21.812Z,20.55
2023-05-25T09:15:53.334Z,20.42
2023-05-25T09:18:21.794Z,20.89
2023-05-25T09:20:50.568Z,21.02
2023-05-25T09:23:19.141Z,20.99
2023-05-25T09:25:50.895Z,21.21
2023-05-25T09:30:53.767Z,20.68
2023-05-25T09:33:22.469Z,20.78
2023-05-25T09:35:51.970Z,20.80
2023-05-25T09:38:20.861Z,21.03
2023-05-25T09:40:49.504Z,21.25
2023-05-25T09:43:28.903Z,21.43
2023-05-25T09:46:07.987Z,21.43
2023-05-25T09:48:37.124Z,21.59
2023-05-25T09:51:07.879Z,21.41
2023-05-25T09:53:36.370Z,21.42
2023-05-25T09:56:04.736Z,21.49
2023-05-25T09:58:33.189Z,21.69
2023-05-25T10:01:01.909Z,21.53
2023-05-25T10:03:31.735Z,21.35
2023-05-25T10:06:00.188Z,21.14
2023-05-25T10:08:29.347Z,21.26
2023-05-25T10:10:57.827Z,21.48
2023-05-25T10:13:31.557Z,21.71
2023-05-25T10:16:02.688Z,21.95
2023-05-25T10:18:37.390Z,21.93
2023-05-25T10:21:08.839Z,22.30
2023-05-25T10:23:47.609Z,22.26
2023-05-25T10:26:21.631Z,22.30
2023-05-25T10:28:52.523Z,22.39
2023-05-25T10:31:22.910Z,22.40
2023-05-25T10:33:53.270Z,22.52
2023-05-25T10:36:22.150Z,22.66
2023-05-25T10:38:53.011Z,22.77
2023-05-25T10:41:22.145Z,22.81
2023-05-25T10:43:51.602Z,22.43
2023-05-25T10:46:20.023Z,22.49
2023-05-25T10:48:50.390Z,22.43
2023-05-25T10:51:21.958Z,22.29
2023-05-25T10:54:02.317Z,22.37
2023-05-25T10:56:30.740Z,22.16
2023-05-25T10:58:59.220Z,22.80
2023-05-25T11:01:28.290Z,22.97
2023-05-25T11:03:58.455Z,22.98
2023-05-25T11:06:59.736Z,23.11
2023-05-25T11:09:31.708Z,23.17
2023-05-25T11:12:04.226Z,23.20
2023-05-25T11:14:34.015Z,23.17
2023-05-25T11:17:10.725Z,23.07
2023-05-25T11:19:44.544Z,22.98
2023-05-25T11:22:18.018Z,22.88
2023-05-25T11:24:48.167Z,22.59
2023-05-25T11:27:16.740Z,22.67
2023-05-25T11:29:45.035Z,22.75
2023-05-25T11:32:15.034Z,22.80
2023-05-25T11:34:46.937Z,22.95
2023-05-25T11:37:21.473Z,23.18
2023-05-25T11:39:53.597Z,23.45
2023-05-25T11:42:23.315Z,23.67
2023-05-25T11:44:52.142Z,23.74
2023-05-25T11:47:23.838Z,23.84
2023-05-25T11:49:52.360Z,23.69
2023-05-25T11:52:22.355Z,23.80
2023-05-25T11:54:53.484Z,23.61
2023-05-25T11:57:25.091Z,23.88
2023-05-25T11:59:54.953Z,23.75
2023-05-25T12:02:23.905Z,23.96
2023-05-25T12:04:56.647Z,24.15
2023-05-25T12:07:26.502Z,23.75
2023-05-25T12:10:06.728Z,23.71
2023-05-25T12:12:44.431Z,23.80
2023-05-25T12:15:14.365Z,23.69
2023-05-25T12:17:44.089Z,24.29
2023-05-25T12:20:15.473Z,24.41
2023-05-25T12:22:44.930Z,24.52
2023-05-25T12:25:16.212Z,24.58
2023-05-25T12:27:44.533Z,24.57
2023-05-25T12:30:13.101Z,24.65
2023-05-25T12:32:55.195Z,24.55
2023-05-25T12:35:23.986Z,24.83
2023-05-25T12:37:52.591Z,25.02
2023-05-25T12:40:24.851Z,25.02
2023-05-25T12:42:59.617Z,25.36
2023-05-25T12:45:28.271Z,25.64
2023-05-25T12:47:56.832Z,25.91
2023-05-25T12:50:25.262Z,25.88
2023-05-25T12:53:01.692Z,25.72
2023-05-25T12:55:33.237Z,25.94
2023-05-25T12:58:03.115Z,25.66
2023-05-25T13:00:33.826Z,25.00
2023-05-25T13:03:02.337Z,24.61
2023-05-25T13:05:33.055Z,24.40
2023-05-25T13:08:03.210Z,24.42
2023-05-25T13:10:34.339Z,24.92
2023-05-25T13:13:02.771Z,25.28
2023-05-25T13:15:31.211Z,25.54
2023-05-25T13:17:59.669Z,25.40
2023-05-25T13:20:29.935Z,25.44
2023-05-25T13:22:58.563Z,25.20
2023-05-25T13:25:27.915Z,25.17
2023-05-25T13:28:00.061Z,25.44
2023-05-25T13:30:28.797Z,25.96
2023-05-25T13:32:57.239Z,26.19
2023-05-25T13:35:42.145Z,26.07
2023-05-25T13:38:11.260Z,25.96
2023-05-25T13:40:39.616Z,26.13
2023-05-25T13:43:09.460Z,26.22
2023-05-25T13:45:39.844Z,26.65
2023-05-25T13:48:08.624Z,26.98
2023-05-25T13:50:37.071Z,27.32
2023-05-25T13:53:05.658Z,27.38
2023-05-25T13:55:35.177Z,27.53
2023-05-25T13:58:03.992Z,27.86
2023-05-25T14:00:34.104Z,28.07
2023-05-25T14:03:02.980Z,27.93
2023-05-25T14:05:31.727Z,27.50
2023-05-25T14:08:02.790Z,27.46
2023-05-25T14:10:31.159Z,27.31
2023-05-25T14:12:59.547Z,27.77
2023-05-25T14:15:27.898Z,28.05
2023-05-25T14:17:57.851Z,28.35
2023-05-25T14:20:26.746Z,28.49
2023-05-25T14:22:55.426Z,27.58
2023-05-25T14:25:23.749Z,26.99
2023-05-25T14:27:52.198Z,26.82
2023-05-25T14:30:21.223Z,26.99
2023-05-25T14:32:49.758Z,27.04
2023-05-25T14:35:19.638Z,27.36
2023-05-25T14:37:48.098Z,27.84
2023-05-25T14:40:16.503Z,28.12
2023-05-25T14:42:44.909Z,28.68
2023-05-25T14:45:15.889Z,28.64
2023-05-25T14:47:44.560Z,29.17
2023-05-25T14:50:13.067Z,29.60
2023-05-25T14:52:43.247Z,29.98
2023-05-25T14:55:12.062Z,30.26
2023-05-25T14:57:40.361Z,30.50
2023-05-25T15:00:10.079Z,30.42
2023-05-25T15:02:38.534Z,30.03
2023-05-25T15:05:07.726Z,29.66
2023-05-25T15:07:36.080Z,29.67
2023-05-25T15:10:06.330Z,30.09
2023-05-25T15:12:34.653Z,30.18
2023-05-25T15:15:03.081Z,30.29
2023-05-25T15:17:31.463Z,30.76
2023-05-25T15:19:59.975Z,31.18
2023-05-25T15:22:28.970Z,31.29
2023-05-25T15:24:57.291Z,31.63
2023-05-25T15:27:27.293Z,32.07
2023-05-25T15:29:55.631Z,32.06
2023-05-25T15:32:23.971Z,31.95
2023-05-25T15:34:52.307Z,31.98
2023-05-25T15:37:20.640Z,32.17
2023-05-25T15:39:48.954Z,32.32
2023-05-25T15:42:17.312Z,33.03
2023-05-25T15:44:47.229Z,33.67
2023-05-25T15:47:15.670Z,34.31
2023-05-25T15:49:44.039Z,34.78
2023-05-25T15:52:12.356Z,35.11
2023-05-25T15:54:40.722Z,35.01
2023-05-25T15:57:09.063Z,35.12
2023-05-25T15:59:37.413Z,35.96
2023-05-25T16:02:08.071Z,35.67
2023-05-25T16:04:36.697Z,35.16
2023-05-25T16:07:05.213Z,34.75
2023-05-25T16:09:33.527Z,35.60
2023-05-25T16:12:02.048Z,35.98
2023-05-25T16:14:30.605Z,36.60
2023-05-25T16:16:59.143Z,37.83
2023-05-25T16:19:29.081Z,37.79
2023-05-25T16:21:57.471Z,36.58
2023-05-25T16:24:27.104Z,36.01
2023-05-25T16:26:55.820Z,35.29
2023-05-25T16:29:24.172Z,36.24
2023-05-25T16:31:53.810Z,36.16
2023-05-25T16:34:22.149Z,36.42
2023-05-25T16:36:52.002Z,37.30
2023-05-25T16:39:20.352Z,37.84
2023-05-25T16:41:50.189Z,37.65
2023-05-25T16:44:19.233Z,37.63
2023-05-25T16:46:47.535Z,36.86
2023-05-25T16:49:15.949Z,36.81
2023-05-25T16:51:44.447Z,36.63
2023-05-25T16:54:16.563Z,35.40
2023-05-25T16:56:45.020Z,35.61
2023-05-25T16:59:13.379Z,36.06
2023-05-25T17:01:41.831Z,36.18
2023-05-25T17:04:10.308Z,36.32
2023-05-25T17:06:39.251Z,35.61
2023-05-25T17:09:08.810Z,34.26
2023-05-25T17:11:38.541Z,33.08
2023-05-25T17:14:07.068Z,31.75
2023-05-25T17:16:35.470Z,30.69
2023-05-25T17:19:03.809Z,29.76
2023-05-25T17:21:32.325Z,28.88
2023-05-25T17:24:00.817Z,28.10
2023-05-25T17:26:29.195Z,27.45
2023-05-25T17:29:00.931Z,26.76
2023-05-25T17:31:29.422Z,26.41
2023-05-25T17:33:57.875Z,26.15
2023-05-25T17:36:30.896Z,25.69
2023-05-25T17:38:59.270Z,25.77
2023-05-25T17:41:27.892Z,25.64
2023-05-25T17:43:56.274Z,25.50
2023-05-25T17:46:26.268Z,25.29
2023-05-25T17:48:54.873Z,25.14
2023-05-25T17:51:23.180Z,25.00
2023-05-25T17:53:51.547Z,24.91
2023-05-25T17:56:19.918Z,24.82
2023-05-25T17:58:48.531Z,24.80
2023-05-25T18:01:17.763Z,24.50
2023-05-25T18:03:48.001Z,24.55
2023-05-25T18:06:16.572Z,24.35
2023-05-25T18:08:44.950Z,24.07
2023-05-25T18:11:13.304Z,23.81
2023-05-25T18:13:42.012Z,23.70
2023-05-25T18:16:10.528Z,23.37
2023-05-25T18:18:38.965Z,23.48
2023-05-25T18:21:08.894Z,23.29
2023-05-25T18:23:37.272Z,23.20
2023-05-25T18:26:06.211Z,23.11
2023-05-25T18:28:34.627Z,23.04
2023-05-25T18:31:03.146Z,22.94
2023-05-25T18:33:31.589Z,22.80
2023-05-25T18:35:59.972Z,22.76
2023-05-25T18:38:29.748Z,22.66
2023-05-25T18:40:58.129Z,22.60
2023-05-25T18:43:27.071Z,22.48
2023-05-25T18:45:55.404Z,22.48
2023-05-25T18:48:24.274Z,22.41
2023-05-25T18:50:52.841Z,22.39
2023-05-25T18:53:21.158Z,22.39
2023-05-25T18:55:51.205Z,22.28
2023-05-25T18:58:19.615Z,22.21
2023-05-25T19:00:47.936Z,22.26
2023-05-25T19:03:16.464Z,22.15
2023-05-25T19:05:45.216Z,21.96
2023-05-25T19:08:13.675Z,22.01
2023-05-25T19:10:42.561Z,22.07
2023-05-25T19:13:12.387Z,21.96
2023-05-25T19:15:40.836Z,21.84
2023-05-25T19:18:09.149Z,21.94
2023-05-25T19:20:37.660Z,21.86
2023-05-25T19:23:06.508Z,21.81
2023-05-25T19:25:34.932Z,21.75
2023-05-25T19:28:03.383Z,21.75
2023-05-25T19:30:33.199Z,21.68
2023-05-25T19:33:01.602Z,21.75
2023-05-25T19:35:30.087Z,21.70
2023-05-25T19:37:59.805Z,21.68
2023-05-25T19:40:29.622Z,21.74
2023-05-25T19:42:57.966Z,21.70
2023-05-25T19:45:26.490Z,21.68
2023-05-25T19:47:56.473Z,21.49
2023-05-25T19:50:28.221Z,21.54
2023-05-25T19:52:56.476Z,21.52
2023-05-25T19:55:25.003Z,21.56
2023-05-25T19:57:53.562Z,21.59
2023-05-25T20:00:26.745Z,21.55
2023-05-25T20:02:57.056Z,21.47
2023-05-25T20:05:25.549Z,21.38
2023-05-25T20:07:54.579Z,21.40
2023-05-25T20:10:23.251Z,21.38
2023-05-25T20:12:51.575Z,21.37
2023-05-25T20:15:20.001Z,21.28
2023-05-25T20:17:48.336Z,21.20
2023-05-25T20:20:18.341Z,21.19
2023-05-25T20:22:46.693Z,21.17
2023-05-25T20:25:15.072Z,21.09
2023-05-25T20:27:43.438Z,21.11
2023-05-25T20:30:13.834Z,21.04
2023-05-25T20:32:44.034Z,20.85
2023-05-25T20:35:12.466Z,21.02
2023-05-25T20:37:42.600Z,21.08
2023-05-25T20:40:11.453Z,20.84
2023-05-25T20:42:39.727Z,20.94
2023-05-25T20:45:09.003Z,20.88
2023-05-25T20:47:37.494Z,20.82
2023-05-25T20:50:06.159Z,20.87
2023-05-25T20:52:34.902Z,20.65
2023-05-25T20:55:05.029Z,20.51
2023-05-25T20:57:33.414Z,20.55
2023-05-25T21:00:01.891Z,20.56
2023-05-25T21:02:30.284Z,20.51
2023-05-25T21:04:58.622Z,20.35
2023-05-25T21:07:27.006Z,20.56
2023-05-25T21:09:56.692Z,20.50
2023-05-25T21:12:26.553Z,20.38
2023-05-25T21:14:55.142Z,20.39
2023-05-25T21:17:23.545Z,20.39
2023-05-25T21:19:52.095Z,20.41
2023-05-25T21:22:20.458Z,20.46
2023-05-25T21:24:48.757Z,20.24
2023-05-25T21:27:17.111Z,20.38
2023-05-25T21:29:46.925Z,20.25
2023-05-25T21:32:15.331Z,20.17
2023-05-25T21:34:43.734Z,19.99
2023-05-25T21:37:12.103Z,20.04
2023-05-25T21:39:40.411Z,20.08
2023-05-25T21:42:08.879Z,20.10
2023-05-25T21:44:37.152Z,20.12
2023-05-25T21:47:07.276Z,20.12
2023-05-25T21:49:35.903Z,20.10
2023-05-25T21:52:04.254Z,20.02
2023-05-25T21:54:32.557Z,20.17
2023-05-25T21:57:02.218Z,19.98
2023-05-25T21:59:30.992Z,19.96
2023-05-25T22:01:59.613Z,19.99
2023-05-25T22:04:29.567Z,19.96
2023-05-25T22:06:57.982Z,19.93
2023-05-25T22:09:26.332Z,19.92
2023-05-25T22:11:54.958Z,20.00
2023-05-25T22:14:24.255Z,19.93
2023-05-25T22:16:52.874Z,19.94
2023-05-25T22:19:21.223Z,19.84
2023-05-25T22:21:51.087Z,19.78
2023-05-25T22:24:19.400Z,19.76
2023-05-25T22:26:47.926Z,19.62
2023-05-25T22:29:16.585Z,19.60
2023-05-25T22:31:45.068Z,19.51
2023-05-25T22:34:13.512Z,19.51
2023-05-25T22:36:41.911Z,19.42
2023-05-25T22:39:11.769Z,19.31
2023-05-25T22:41:40.073Z,19.23
2023-05-25T22:44:08.417Z,19.11
2023-05-25T22:46:36.820Z,19.08
2023-05-25T22:49:05.208Z,19.06
2023-05-25T22:51:33.580Z,18.98
2023-05-25T22:54:01.974Z,18.96
2023-05-25T22:56:31.748Z,18.95
2023-05-25T22:59:00.083Z,18.95
2023-05-25T23:01:28.537Z,18.94
2023-05-25T23:03:57.029Z,18.96
2023-05-25T23:06:25.464Z,19.05
2023-05-25T23:08:54.238Z,18.93
2023-05-25T23:11:22.545Z,18.89
2023-05-25T23:13:54.835Z,18.86
2023-05-25T23:16:23.880Z,18.93
2023-05-25T23:18:52.152Z,18.78
2023-05-25T23:21:20.607Z,18.63
2023-05-25T23:23:49.188Z,18.60
2023-05-25T23:26:17.549Z,18.62
2023-05-25T23:28:46.001Z,18.55
2023-05-25T23:31:15.863Z,18.44
2023-05-25T23:33:44.153Z,18.55
2023-05-25T23:36:12.858Z,18.43
2023-05-25T23:38:41.251Z,18.58
2023-05-25T23:41:09.645Z,18.46
2023-05-25T23:43:38.078Z,18.45
2023-05-25T23:46:06.438Z,18.44
2023-05-25T23:48:36.215Z,18.41
2023-05-25T23:51:07.606Z,18.44
2023-05-25T23:53:36.086Z,18.49
2023-05-25T23:56:04.630Z,18.47
2023-05-25T23:58:33.091Z,18.32
